»·PEaware :: VRD935 KELP-KABQ

VRD935 :: KELP-KABQ

FLIGHT INFORMATION

Flight Status: Arrived
Operator:
Virgin America
More flights by this operator :: More flights under this callsign
Pilot: Max W. (2591)
Aircraft: AIRBUS A320
(A320)
More flights by this aircraft type
Origin: KELP El Paso Intl
United States
Destination: KABQ Albuquerque Intl Sunport
United States
More flights between these airports :: More routes between these airports
Route: +RUTER TCS J13 ABQ
File this flight plan on PilotEdge
Remarks:
Altitude:
(Current/Filed)
28,000ft
Speed:
(Current/Filed)
450kts
Departed: 10-Jan-18 08:30 PM
Arrived: 10-Jan-18 09:13 PM
Distance/Time
Traveled:
195nm/0:43
Distance/Time
To Go:
Arrived

Flight Plot

Page will automatically refresh every two minutes.

Flight plan parsing failed; only flown route is shown


Map Options




Map Legend


Flown Route
Filed Route
Departure Airport
Arrival Airport
Navaid (VOR, NDB)
Fix

Horizontal Profiles

Position Reports

Time Latitude Longitude Heading Altitude Ground
Speed
10-Jan-18 20:24 31.797706 -106.376429 261 3947ft 0kts
10-Jan-18 20:25 31.797706 -106.376429 261 3947ft 0kts
10-Jan-18 20:26 31.797706 -106.376429 261 3947ft 0kts
10-Jan-18 20:27 31.797706 -106.376429 261 3947ft 0kts
10-Jan-18 20:28 31.797706 -106.376429 261 3947ft 0kts
10-Jan-18 20:29 31.797754 -106.376694 299 3946ft 3kts
10-Jan-18 20:30 31.799380 -106.377507 1 3945ft 12kts
10-Jan-18 20:31 31.799637 -106.373618 94 3950ft 18kts
10-Jan-18 20:32 31.799278 -106.366268 93 3959ft 32kts
10-Jan-18 20:33 31.799488 -106.360468 1 3950ft 0kts
10-Jan-18 20:34 31.800509 -106.360524 324 3950ft 12kts
10-Jan-18 20:35 31.800680 -106.361013 270 3950ft 0kts
10-Jan-18 20:36 31.801545 -106.380717 265 4723ft 149kts
10-Jan-18 20:37 31.761643 -106.398224 147 7353ft 275kts
10-Jan-18 20:38 31.710130 -106.317143 107 10588ft 333kts
10-Jan-18 20:39 31.705772 -106.198029 71 12737ft 389kts
10-Jan-18 20:40 31.783611 -106.127353 351 14858ft 372kts
10-Jan-18 20:41 31.859224 -106.197994 303 17295ft 368kts
10-Jan-18 20:42 31.926230 -106.290112 323 19486ft 382kts
10-Jan-18 20:43 32.021638 -106.348182 327 21370ft 394kts
10-Jan-18 20:44 32.112579 -106.413553 323 24204ft 374kts
10-Jan-18 20:45 32.200669 -106.476509 325 26224ft 380kts
10-Jan-18 20:46 32.291348 -106.542596 325 27944ft 389kts
10-Jan-18 20:47 32.383988 -106.610522 325 29489ft 396kts
10-Jan-18 20:48 32.472118 -106.675843 324 29998ft 396kts
10-Jan-18 20:49 32.565657 -106.744642 324 29993ft 397kts
10-Jan-18 20:50 32.654316 -106.810269 323 30000ft 397kts
10-Jan-18 20:51 32.746735 -106.879106 324 29994ft 393kts
10-Jan-18 20:52 32.838479 -106.947232 325 29973ft 385kts
10-Jan-18 20:53 32.928460 -107.014276 325 29962ft 383kts
10-Jan-18 20:54 33.028118 -107.054473 356 29958ft 408kts
10-Jan-18 20:55 33.142254 -107.041601 357 29968ft 418kts
10-Jan-18 20:56 33.257518 -107.028430 356 30013ft 422kts
10-Jan-18 20:57 33.373559 -107.015199 358 29751ft 416kts
10-Jan-18 20:58 33.489849 -107.001274 358 26280ft 422kts
10-Jan-18 20:59 33.603421 -106.987918 358 23689ft 407kts
10-Jan-18 21:00 33.715077 -106.974785 358 22550ft 399kts
10-Jan-18 21:01 33.823474 -106.962562 357 19759ft 389kts
10-Jan-18 21:02 33.930804 -106.949854 357 18920ft 386kts
10-Jan-18 21:03 34.036436 -106.936956 358 18026ft 378kts
10-Jan-18 21:04 34.137402 -106.924968 358 15340ft 368kts
10-Jan-18 21:05 34.236281 -106.913240 358 12498ft 363kts
10-Jan-18 21:06 34.335257 -106.901445 358 11051ft 336kts
10-Jan-18 21:07 34.415444 -106.891871 357 11040ft 278kts
10-Jan-18 21:08 34.492249 -106.882753 357 11038ft 279kts
10-Jan-18 21:09 34.568935 -106.864654 9 11034ft 288kts
10-Jan-18 21:10 34.643982 -106.834063 9 10293ft 277kts
10-Jan-18 21:11 34.713866 -106.805677 9 9182ft 264kts
10-Jan-18 21:12 34.782784 -106.778922 9 8074ft 253kts
10-Jan-18 21:13 34.846485 -106.754020 9 7489ft 240kts
10-Jan-18 21:14 34.907364 -106.730575 9 7234ft 211kts
10-Jan-18 21:15 34.960747 -106.707904 16 7221ft 202kts
10-Jan-18 21:16 35.009649 -106.680946 16 6820ft 173kts
10-Jan-18 21:17 35.043470 -106.651455 61 5791ft 155kts
10-Jan-18 21:18 35.044269 -106.603514 86 5318ft 45kts
10-Jan-18 21:19 35.045793 -106.606289 271 5318ft 34kts
10-Jan-18 21:20 35.046454 -106.615333 336 5318ft 5kts
10-Jan-18 21:21 35.046858 -106.615382 15 5318ft 0kts
10-Jan-18 21:22 35.046858 -106.615382 15 5318ft 0kts
10-Jan-18 21:23 35.046858 -106.615382 15 5318ft 0kts
10-Jan-18 21:24 35.046858 -106.615382 15 5318ft 0kts
10-Jan-18 21:25 35.046858 -106.615382 15 5318ft 0kts
10-Jan-18 21:26 35.046858 -106.615382 15 5318ft 0kts
10-Jan-18 21:27 35.046858 -106.615382 15 5318ft 0kts
10-Jan-18 21:28 35.046858 -106.615382 15 5318ft 0kts

Navigation Log

Ident Type
Flight plan parsing failed, navigation log unavailable